Dryden Regional Airport
CYHD : rendu visible

Aérodrome :











RETROUVEZ-NOUS SUR...

 
LOGIN :

S'inscrire | Disclaimer

   EN    FR    IT 

 









Légende :    VFR   VFR Marginal   IFR   IFR Intensif   IFR Très Intensif
Visi : 
Plafond : 
>= 8 km
>= 3000ft
5 à 8 km
1000 à 3000 ft
1500m à 5 km
500 à 1000 ft
800 à 1500m
200 à 500 ft
< 800m
< 200 ft
Symboles :   Orages  Brouillard  Fortes neiges  Fortes précipitations  Vent > 20 kt






- Altitude de l'aérodrome : 1354 ft
- Code IATA : YHD


CYHD - Dryden Regional

DERNIER METAR :
  • 101009Z AUTO 25009KT 9SM OVC029 M04/M09 A2994 RMK SLP166

METARs EXPIRÉS :
  • 101000Z AUTO 26008KT 9SM -SN OVC029 M04/M09 A2994 RMK SLP167
  • 100950Z AUTO 26007KT 9SM OVC029 M04/M09 A2994 RMK SLP166
  • 100934Z AUTO 27008KT 9SM -SN BKN029 OVC034 M04/M09 A2995 RMK SLP168
  • 100900Z AUTO 30005KT 9SM OVC032 M04/M10 A2995 RMK SLP169
  • 100837Z AUTO 29006KT 9SM OVC030 M03/M10 A2996 RMK SLP170
  • 100812Z AUTO 30003KT 9SM -SN OVC032 M03/M09 A2996 RMK SLP170
  • 100800Z AUTO 31004KT 270V360 9SM OVC032 M03/M10 A2996 RMK SLP171
  • 100700Z AUTO 33004KT 300V010 9SM OVC032 M03/M10 A2996 RMK SLP172

TAF AMD TAF CYHD
Valide du 10 à 09h jusqu'au 10 à 20h UTC


100923Z 1009/1020 30005KT P6SM OVC030
TEMPO 1009/1012 OVC020
FM101200 VRB03KT P6SM FEW020
TEMPO 1012/1014 BKN020
FM101700 23006KT P6SM BKN100 RMK FCST BASED ON AUTO OBS. NXT FCST BY 101400Z



MET'MAP, la Météo Aéronautique d'un coup d'oeil ! - Copyright ORBIFLY Décembre 2007 - Disclaimer

ORBIFLY MET'MAP TEAM :

Programmation & Développement : Alexandra Zaïnal
Sur une idée originale de : Baudouin d'Aumeries
Assistance à la programmation : Marc-Olivier Méhu
Soutien technique & logistique : Manuel Goepfert

Contact : metmap@orbifly.com




SOURCES & CREDITS :

   NOAA       Earth
Advisory